METAR AND TAF INFORMATION
METAR FOR LEIB
ADDS - METARS form results

(1523 UTC 19 September 2017)
Data provider http://aviationweather.gov/adds/metars/
 
METAR text: LEIB 191500Z 08008KT 9999 FEW027 24/17 Q1020 NOSIG
Conditions at: LEIB (IBIZA/ES CODOLA , ES) observed 1500 UTC 19 September 2017
Temperature: 24.0°C (75°F)
Dewpoint: 17.0°C (63°F) [RH = 65%]
Pressure (altimeter): 30.12 inches Hg (1020.0 mb)
Winds: from the E (80 degrees) at 9 MPH (8 knots; 4.2 m/s)
Visibility: 6 or more miles (10+ km)
Ceiling: at least 12,000 feet AGL
Clouds: few clouds at 2700 feet AGL
Weather: no significant weather observed at this time

METAR text: LEIB 191430Z 08008KT 050V120 9999 FEW027 24/17 Q1020 NOSIG
Conditions at: LEIB (IBIZA/ES CODOLA , ES) observed 1430 UTC 19 September 2017
Temperature: 24.0°C (75°F)
Dewpoint: 17.0°C (63°F) [RH = 65%]
Pressure (altimeter): 30.12 inches Hg (1020.0 mb)
Winds: from the E (80 degrees) at 9 MPH (8 knots; 4.2 m/s)
Visibility: 6 or more miles (10+ km)
Ceiling: at least 12,000 feet AGL
Clouds: few clouds at 2700 feet AGL
Weather: no significant weather observed at this time

Forecast for: LEIB (IBIZA/ES CODOLA , ES)
Text: TAF LEIB 191400Z 1915/2015 10010KT 9999 FEW015 TX25/2012Z TN17/2006Z
Forecast period: 1500 to 1800 UTC 19 September 2017
Forecast type: FROM: standard forecast or significant change
Winds: from the E (100 degrees) at 12 MPH (10 knots; 5.2 m/s)
Visibility: 6 or more miles (10+ km)
Clouds: few clouds at 1500 feet AGL
Weather: no significant weather forecast for this period
Text: BECMG 1918/1920 VRB04KT
Forecast period: 1800 UTC 19 September 2017 to 0900 UTC 20 September 2017
Forecast type: BECOMING: Conditions expected to become as follows by 2000 UTC 19 September 2017
Winds: variable direction winds at 5 MPH (4 knots; 2.1 m/s)
Visibility: 6 or more miles (10+ km)
Clouds: few clouds at 1500 feet AGL
Weather: no significant weather forecast for this period
Text: BECMG 2009/2011 21008KT
Forecast period: 0900 to 1500 UTC 20 September 2017
Forecast type: BECOMING: Conditions expected to become as follows by 1100 UTC 20 September 2017
Winds: from the SSW (210 degrees) at 9 MPH (8 knots; 4.2 m/s)
Visibility: 6 or more miles (10+ km)
Clouds: few clouds at 1500 feet AGL
Weather: no significant weather forecast for this period

 AIRPORT MAP

 RUNWAY INFORMATION
Runway 06 Runway length 9186 ft Runway width 148 ft
Runway elevation 13 ft Runway displaced threshold 0 ft Runway heading 62
Runway 24 Runway length 9186 ft Runway width 148 ft
Runway elevation 16 ft Runway displaced threshold 0 ft Runway heading 242

 AIRPORT FREQUENCIES
Type APP Name PALMA APP Frequency 118.125 MHZ
Type APP Name APP Frequency 119.8 MHZ
Type ATIS Name ATIS Frequency 117.8 MHZ
Type GND Name GND Frequency 121.8 MHZ
Type TWR Name TWR Frequency 118.5 MHZ

 AIRPORT NEAR NAVIGATION AIDS
Type VOR-DME Name Ibiza Frequency 117800 KHZ
Type NDB Name Ibiza Frequency 394 KHZ



Powered by Virtual Airlines Manager [v2.6.2]